Time;durP1;ratioP1;P1;durP2;ratioP2;P2;SDS_P1;SDS_P2;PMS_P1;PMS_P2;Temp;Humidity;BMP_temperature;BMP_pressure;BME280_temperature;BME280_humidity;BME280_pressure;Samples;Min_cycle;Max_cycle;Signal;HPM_P1;HPM_P2
2021/03/04 00:02:10;;;;;;;89.95;37.03;;;5.60;99.90;;;;;;4470848;28;656977;-63
2021/03/04 00:04:57;;;;;;;84.63;35.63;;;5.60;99.90;;;;;;4439274;28;657800;-60
2021/03/04 00:07:44;;;;;;;88.27;35.27;;;5.50;99.90;;;;;;4449668;28;658946;-62
2021/03/04 00:10:31;;;;;;;74.17;26.97;;;5.40;99.90;;;;;;4461382;28;657998;-65
2021/03/04 00:13:18;;;;;;;74.77;29.17;;;5.50;99.90;;;;;;4421615;28;657723;-63
2021/03/04 00:16:06;;;;;;;66.73;26.30;;;5.40;99.90;;;;;;4436070;28;659297;-64
2021/03/04 00:18:54;;;;;;;72.80;28.05;;;5.30;99.90;;;;;;4436284;28;657637;-61
2021/03/04 00:21:41;;;;;;;69.77;26.77;;;5.30;99.90;;;;;;4452509;28;657537;-63
2021/03/04 00:24:28;;;;;;;58.77;24.33;;;5.10;99.90;;;;;;4439717;28;657979;-64
2021/03/04 00:27:15;;;;;;;64.03;27.00;;;5.10;99.90;;;;;;4465669;28;658550;-64
2021/03/04 00:30:03;;;;;;;70.53;27.27;;;5.40;99.90;;;;;;4461248;28;658384;-60
2021/03/04 00:32:49;;;;;;;69.20;28.50;;;5.30;99.90;;;;;;4460814;28;659192;-65
2021/03/04 00:35:37;;;;;;;67.57;27.00;;;5.10;99.90;;;;;;4466216;28;658835;-63
2021/03/04 00:38:24;;;;;;;69.57;27.37;;;5.20;99.90;;;;;;4419523;28;658180;-64
2021/03/04 00:41:12;;;;;;;70.67;27.43;;;5.20;99.90;;;;;;4438574;28;657374;-61
2021/03/04 00:43:59;;;;;;;70.87;26.97;;;5.20;99.90;;;;;;4424728;28;658644;-63
2021/03/04 00:46:46;;;;;;;68.13;28.40;;;5.00;99.90;;;;;;4453073;28;656895;-64
2021/03/04 00:49:33;;;;;;;72.80;27.97;;;4.90;99.90;;;;;;4435229;28;657731;-63
2021/03/04 00:52:21;;;;;;;70.63;26.57;;;5.00;99.90;;;;;;4456544;28;658880;-64
2021/03/04 00:55:08;;;;;;;71.23;28.30;;;5.00;99.90;;;;;;4438875;28;658161;-64
2021/03/04 00:57:55;;;;;;;74.13;28.80;;;5.00;99.90;;;;;;4466136;28;658232;-64
2021/03/04 01:00:42;;;;;;;69.07;27.17;;;4.90;99.90;;;;;;4440732;28;659046;-60
2021/03/04 01:03:29;;;;;;;69.20;26.13;;;4.90;99.90;;;;;;4469448;28;658451;-63
2021/03/04 01:06:17;;;;;;;71.25;28.52;;;4.90;99.90;;;;;;4455138;28;657420;-65
2021/03/04 01:09:05;;;;;;;71.90;28.47;;;4.90;99.90;;;;;;4426420;28;659197;-64
2021/03/04 01:11:52;;;;;;;73.37;28.40;;;4.90;99.90;;;;;;4435662;28;658801;-63
2021/03/04 01:14:39;;;;;;;75.13;28.80;;;4.80;99.90;;;;;;4459638;28;659031;-64
2021/03/04 01:17:26;;;;;;;63.67;23.47;;;4.90;99.90;;;;;;4452903;28;658172;-64
2021/03/04 01:20:15;;;;;;;77.10;30.40;;;4.90;99.90;;;;;;4438854;28;657562;-64
2021/03/04 01:23:02;;;;;;;79.43;31.80;;;4.80;99.90;;;;;;4464516;28;657282;-59
2021/03/04 01:25:50;;;;;;;74.80;30.33;;;4.70;99.90;;;;;;4470571;28;657334;-63
2021/03/04 01:28:37;;;;;;;81.13;30.90;;;4.70;99.90;;;;;;4451592;28;658359;-60
2021/03/04 01:31:24;;;;;;;78.43;31.17;;;4.60;99.90;;;;;;4469623;28;657080;-64
2021/03/04 01:34:11;;;;;;;78.65;31.17;;;4.50;99.90;;;;;;4464676;28;658584;-63
2021/03/04 01:36:58;;;;;;;69.13;29.85;;;4.70;99.90;;;;;;4427755;28;658293;-64
2021/03/04 01:39:45;;;;;;;80.25;32.50;;;4.60;99.90;;;;;;4451509;28;659014;-64
2021/03/04 01:42:33;;;;;;;72.53;30.30;;;4.50;99.90;;;;;;4443232;28;657905;-62
2021/03/04 01:45:20;;;;;;;71.90;26.97;;;4.30;99.90;;;;;;4465544;28;659931;-65
2021/03/04 01:48:08;;;;;;;84.30;33.70;;;4.70;99.90;;;;;;4440827;28;657629;-61
2021/03/04 01:50:55;;;;;;;77.73;31.83;;;4.60;99.90;;;;;;4463788;28;658158;-65
2021/03/04 01:53:42;;;;;;;82.23;31.73;;;4.60;99.90;;;;;;4433318;28;657690;-58
2021/03/04 01:56:29;;;;;;;81.83;33.77;;;4.70;99.90;;;;;;4453634;28;657430;-64
2021/03/04 01:59:17;;;;;;;79.60;31.93;;;4.90;99.90;;;;;;4443607;28;657582;-63
2021/03/04 02:02:04;;;;;;;85.90;33.30;;;4.80;99.90;;;;;;4415404;28;659181;-63
2021/03/04 02:04:51;;;;;;;78.20;31.83;;;4.80;99.90;;;;;;4439167;28;657285;-64
2021/03/04 02:07:43;;;;;;;76.27;30.37;;;4.70;99.90;;;;;;4433421;28;660345;-64
2021/03/04 02:10:34;;;;;;;76.97;27.30;;;4.80;99.90;;;;;;4436142;28;658419;-64
2021/03/04 02:13:28;;;;;;;84.97;31.90;;;4.80;99.90;;;;;;4434583;28;657595;-64
2021/03/04 02:16:18;;;;;;;81.43;32.57;;;4.90;99.90;;;;;;4435129;28;658395;-64
2021/03/04 02:19:08;;;;;;;79.77;33.60;;;4.80;99.90;;;;;;4441755;28;659282;-64
2021/03/04 02:21:59;;;;;;;87.05;34.28;;;4.70;99.90;;;;;;4437059;28;658688;-65
2021/03/04 02:24:53;;;;;;;92.37;34.70;;;4.50;99.90;;;;;;4428482;28;659255;-64
2021/03/04 02:27:41;;;;;;;74.00;29.73;;;4.40;99.90;;;;;;4429446;28;658298;-65
2021/03/04 02:30:30;;;;;;;73.63;30.63;;;4.40;99.90;;;;;;4430151;28;658613;-64
2021/03/04 02:33:19;;;;;;;75.80;29.77;;;4.50;99.90;;;;;;4431888;28;658829;-62
2021/03/04 02:36:07;;;;;;;88.60;33.23;;;4.60;99.90;;;;;;4455026;28;659058;-65
2021/03/04 02:38:53;;;;;;;85.47;33.80;;;4.60;99.90;;;;;;4416757;28;657828;-64
2021/03/04 02:41:40;;;;;;;86.43;33.83;;;4.50;99.90;;;;;;4454687;28;658777;-65
2021/03/04 02:44:28;;;;;;;90.47;34.53;;;4.60;99.90;;;;;;4431444;28;657348;-61
2021/03/04 02:47:17;;;;;;;87.87;34.30;;;4.60;99.90;;;;;;4458588;28;659542;-61
2021/03/04 02:50:05;;;;;;;88.63;33.77;;;4.80;99.90;;;;;;4434529;28;659192;-63
2021/03/04 02:52:52;;;;;;;89.28;34.30;;;4.60;99.90;;;;;;4443909;28;657768;-59
2021/03/04 02:55:39;;;;;;;93.10;34.80;;;4.50;99.90;;;;;;4462040;28;657308;-64
2021/03/04 02:58:26;;;;;;;92.57;33.20;;;4.50;99.90;;;;;;4465349;28;657678;-63
2021/03/04 03:01:14;;;;;;;81.63;31.60;;;4.40;99.90;;;;;;4439947;28;657679;-65
2021/03/04 03:04:01;;;;;;;83.10;33.42;;;4.60;99.90;;;;;;4464071;28;657342;-60
2021/03/04 03:06:48;;;;;;;55.23;20.27;;;4.60;99.90;;;;;;4441736;28;659011;-65
2021/03/04 03:09:35;;;;;;;95.77;36.40;;;4.50;99.90;;;;;;4468487;28;659668;-64
2021/03/04 03:12:22;;;;;;;70.73;26.43;;;4.50;99.90;;;;;;4435666;28;658932;-60
2021/03/04 03:15:10;;;;;;;85.25;34.63;;;4.50;99.90;;;;;;4463636;28;657119;-63
2021/03/04 03:17:58;;;;;;;89.93;35.73;;;4.50;99.90;;;;;;4447456;28;658934;-63
2021/03/04 03:20:45;;;;;;;84.77;34.13;;;4.50;99.90;;;;;;4458375;28;658349;-64
2021/03/04 03:23:32;;;;;;;86.60;36.30;;;4.40;99.90;;;;;;4419415;28;658893;-62
2021/03/04 03:26:19;;;;;;;67.47;24.10;;;4.50;99.90;;;;;;4461592;28;657218;-64
2021/03/04 03:29:06;;;;;;;89.70;35.60;;;4.70;99.90;;;;;;4447628;28;657858;-63
2021/03/04 03:31:54;;;;;;;86.63;35.10;;;4.60;99.90;;;;;;4418516;28;657684;-64
2021/03/04 03:34:42;;;;;;;91.07;35.97;;;4.60;99.90;;;;;;4459451;28;658671;-65
2021/03/04 03:37:29;;;;;;;91.00;35.57;;;4.40;99.90;;;;;;4427720;28;659251;-65
2021/03/04 03:40:16;;;;;;;89.55;36.15;;;4.40;99.90;;;;;;4454930;28;657524;-65
2021/03/04 03:43:07;;;;;;;76.23;29.30;;;4.40;99.90;;;;;;4438206;28;659760;-64
2021/03/04 03:45:53;;;;;;;86.77;35.57;;;4.60;99.90;;;;;;4432142;28;657801;-64
2021/03/04 03:48:41;;;;;;;96.20;37.30;;;4.50;99.90;;;;;;4459412;28;657429;-65
2021/03/04 03:51:29;;;;;;;101.37;36.90;;;4.50;99.90;;;;;;4447461;28;657546;-64
2021/03/04 03:54:16;;;;;;;86.73;34.17;;;4.60;99.90;;;;;;4451923;28;658595;-65
2021/03/04 03:57:04;;;;;;;84.20;34.20;;;4.70;99.90;;;;;;4441358;28;658025;-65
2021/03/04 03:59:51;;;;;;;75.83;30.23;;;4.80;99.90;;;;;;4465156;28;657839;-65
2021/03/04 04:02:38;;;;;;;70.90;27.27;;;4.70;99.90;;;;;;4439100;28;657970;-65
2021/03/04 04:05:26;;;;;;;89.10;35.97;;;4.80;99.90;;;;;;4432818;28;659303;-65
2021/03/04 04:08:14;;;;;;;81.63;32.97;;;4.90;99.90;;;;;;4427678;28;658570;-64
2021/03/04 04:11:01;;;;;;;86.37;36.10;;;4.80;99.90;;;;;;4440610;28;658463;-65
2021/03/04 04:13:48;;;;;;;89.17;35.37;;;4.70;99.90;;;;;;4421052;28;657974;-64
2021/03/04 04:16:35;;;;;;;88.97;33.83;;;4.70;99.90;;;;;;4442071;28;658222;-64
2021/03/04 04:19:23;;;;;;;82.53;34.40;;;4.60;99.90;;;;;;4444885;28;658555;-61
2021/03/04 04:22:11;;;;;;;84.07;33.73;;;4.50;99.90;;;;;;4458087;28;658778;-64
2021/03/04 04:24:59;;;;;;;83.33;34.33;;;4.50;99.90;;;;;;4447524;28;658358;-65
2021/03/04 04:27:46;;;;;;;74.67;32.20;;;4.50;99.90;;;;;;4450878;28;657038;-65
2021/03/04 04:30:33;;;;;;;74.33;28.93;;;4.50;99.90;;;;;;4441813;28;657731;-65
2021/03/04 04:33:20;;;;;;;81.80;33.97;;;4.60;99.90;;;;;;4441249;28;657361;-65
2021/03/04 04:36:07;;;;;;;81.93;31.90;;;4.80;99.90;;;;;;4434781;28;658025;-61
2021/03/04 04:38:56;;;;;;;80.83;32.57;;;4.70;99.90;;;;;;4449617;28;658255;-65
2021/03/04 04:41:43;;;;;;;79.97;32.73;;;4.80;99.90;;;;;;4430811;28;658015;-64
2021/03/04 04:44:31;;;;;;;82.87;34.07;;;4.90;99.90;;;;;;4465905;28;658377;-64
2021/03/04 04:47:17;;;;;;;78.53;31.40;;;4.90;99.90;;;;;;4431200;28;657507;-64
2021/03/04 04:50:06;;;;;;;72.37;29.37;;;4.90;99.90;;;;;;4455706;28;657946;-64
2021/03/04 04:52:53;;;;;;;74.27;30.27;;;4.90;99.90;;;;;;4434896;28;658558;-65
2021/03/04 04:55:40;;;;;;;72.80;29.03;;;4.90;99.90;;;;;;4450199;28;658865;-64
2021/03/04 04:58:28;;;;;;;77.77;30.37;;;4.90;99.90;;;;;;4449625;28;657475;-61
2021/03/04 05:01:15;;;;;;;72.07;28.60;;;4.80;99.90;;;;;;4461731;28;659064;-63
2021/03/04 05:04:02;;;;;;;71.83;27.60;;;4.70;99.90;;;;;;4430879;28;658729;-59
2021/03/04 05:06:49;;;;;;;73.82;29.83;;;4.80;99.90;;;;;;4464971;28;657887;-64
2021/03/04 05:09:36;;;;;;;62.33;27.33;;;4.90;99.90;;;;;;4459561;28;657807;-65
2021/03/04 05:12:23;;;;;;;64.67;26.27;;;4.80;99.90;;;;;;4425114;28;659657;-63
2021/03/04 05:15:12;;;;;;;72.83;27.67;;;4.90;99.90;;;;;;4448145;28;658967;-65
2021/03/04 05:17:59;;;;;;;58.78;25.15;;;4.80;99.90;;;;;;4442693;28;658791;-65
2021/03/04 05:20:46;;;;;;;65.38;26.48;;;4.90;99.90;;;;;;4466324;28;657891;-64
2021/03/04 05:23:33;;;;;;;71.18;26.67;;;4.80;99.90;;;;;;4436911;28;658865;-65
2021/03/04 05:26:20;;;;;;;57.70;20.50;;;4.90;99.90;;;;;;4458663;28;657888;-64
2021/03/04 05:29:07;;;;;;;53.17;22.17;;;4.90;99.90;;;;;;4438054;28;657489;-63
2021/03/04 05:31:55;;;;;;;48.58;20.00;;;5.00;99.90;;;;;;4453253;28;658248;-64
2021/03/04 05:34:42;;;;;;;60.90;23.00;;;5.00;99.90;;;;;;4440519;28;658402;-60
2021/03/04 05:37:29;;;;;;;49.37;20.43;;;5.00;99.90;;;;;;4456356;28;657763;-66
2021/03/04 05:40:17;;;;;;;59.33;24.47;;;5.00;99.90;;;;;;4464268;28;658110;-64
2021/03/04 05:43:04;;;;;;;44.83;15.60;;;5.00;99.90;;;;;;4432356;28;658343;-64
2021/03/04 05:45:50;;;;;;;64.17;23.70;;;5.10;99.90;;;;;;4449444;28;659287;-64
2021/03/04 05:48:39;;;;;;;64.63;25.20;;;5.10;99.90;;;;;;4429929;28;657381;-63
2021/03/04 05:51:26;;;;;;;63.30;25.77;;;5.10;99.90;;;;;;4448795;28;659051;-64
2021/03/04 05:54:15;;;;;;;60.10;27.00;;;5.10;99.90;;;;;;4430990;28;657546;-65
2021/03/04 05:57:03;;;;;;;67.30;26.17;;;5.10;99.90;;;;;;4436168;28;658452;-61
2021/03/04 05:59:53;;;;;;;58.93;23.63;;;5.00;99.90;;;;;;4466650;28;658307;-64
2021/03/04 06:02:41;;;;;;;66.23;25.60;;;5.00;99.90;;;;;;4424465;28;658798;-65
2021/03/04 06:05:29;;;;;;;67.07;28.10;;;5.30;99.90;;;;;;4428306;28;658911;-65
2021/03/04 06:08:16;;;;;;;72.23;27.47;;;5.40;99.90;;;;;;4462035;28;657725;-65
2021/03/04 06:11:03;;;;;;;70.85;28.27;;;5.40;99.90;;;;;;4433985;28;658229;-65
2021/03/04 06:13:51;;;;;;;68.80;24.27;;;5.40;99.90;;;;;;4459067;28;658568;-65
2021/03/04 06:16:38;;;;;;;73.37;26.30;;;5.40;99.90;;;;;;4443052;28;658712;-64
2021/03/04 06:19:25;;;;;;;72.00;29.27;;;5.30;99.90;;;;;;4459920;28;658832;-64
2021/03/04 06:22:13;;;;;;;76.77;30.40;;;5.30;99.90;;;;;;4453146;28;657937;-60
2021/03/04 06:25:01;;;;;;;78.53;29.40;;;5.30;99.90;;;;;;4463737;28;658908;-64
2021/03/04 06:27:48;;;;;;;76.80;30.47;;;5.30;99.90;;;;;;4438250;28;658048;-65
2021/03/04 06:30:35;;;;;;;79.97;31.70;;;5.30;99.90;;;;;;4466288;28;659658;-65
2021/03/04 06:33:22;;;;;;;81.73;30.97;;;5.30;99.90;;;;;;4446647;28;657518;-64
2021/03/04 06:36:13;;;;;;;73.72;27.70;;;5.30;99.90;;;;;;4462087;28;657848;-65
2021/03/04 06:39:01;;;;;;;73.73;25.77;;;5.50;99.90;;;;;;4435447;28;658248;-64
2021/03/04 06:42:01;;;;;;;87.45;31.40;;;5.40;99.90;;;;;;4449528;28;659138;-63
2021/03/04 06:44:48;;;;;;;78.37;31.37;;;5.40;99.90;;;;;;4423418;28;658699;-64
2021/03/04 06:47:35;;;;;;;83.30;30.37;;;5.60;99.90;;;;;;4464937;28;658753;-65
2021/03/04 06:50:23;;;;;;;74.60;28.77;;;5.50;99.90;;;;;;4452601;28;657788;-60
2021/03/04 06:53:15;;;;;;;81.80;31.83;;;5.60;99.90;;;;;;4468212;28;658081;-65
2021/03/04 06:56:05;;;;;;;79.70;32.63;;;5.60;99.90;;;;;;4445015;28;657519;-65
2021/03/04 06:58:58;;;;;;;85.40;33.33;;;5.60;99.90;;;;;;4459592;28;657596;-60
2021/03/04 07:01:45;;;;;;;91.28;34.67;;;5.60;99.90;;;;;;4444712;28;658988;-65
2021/03/04 07:04:32;;;;;;;84.35;33.90;;;5.80;99.90;;;;;;4442222;28;658410;-60
2021/03/04 07:07:22;;;;;;;91.53;35.23;;;5.70;99.90;;;;;;4472945;28;657169;-65
2021/03/04 07:10:10;;;;;;;90.43;35.13;;;5.70;99.90;;;;;;4445274;28;659031;-64
2021/03/04 07:12:58;;;;;;;92.67;34.40;;;5.70;99.90;;;;;;4457646;28;658354;-61
2021/03/04 07:15:45;;;;;;;94.43;36.83;;;5.80;99.90;;;;;;4468692;28;658662;-65
2021/03/04 07:18:39;;;;;;;97.60;35.90;;;5.90;99.90;;;;;;4443912;28;657702;-61
2021/03/04 07:21:27;;;;;;;84.13;31.47;;;5.90;99.90;;;;;;4434928;28;658622;-64
2021/03/04 07:24:14;;;;;;;97.07;36.80;;;5.90;99.90;;;;;;4440921;28;658388;-64
2021/03/04 07:27:01;;;;;;;90.23;36.80;;;5.90;99.90;;;;;;4462004;28;658087;-65
2021/03/04 07:29:49;;;;;;;96.87;35.97;;;6.10;99.90;;;;;;4448995;28;658313;-65
2021/03/04 07:32:36;;;;;;;74.10;29.57;;;6.20;99.90;;;;;;4459190;28;658068;-65
2021/03/04 07:35:23;;;;;;;102.10;37.33;;;6.20;99.90;;;;;;4442364;28;658321;-64
2021/03/04 07:38:10;;;;;;;89.13;37.45;;;6.40;99.90;;;;;;4443428;28;660385;-65
2021/03/04 07:41:08;;;;;;;91.40;37.58;;;6.30;99.90;;;;;;4439865;28;658878;-61
2021/03/04 07:43:55;;;;;;;93.23;36.40;;;6.40;99.90;;;;;;4436590;28;658458;-64
2021/03/04 07:46:50;;;;;;;94.57;36.72;;;6.50;99.90;;;;;;4441152;28;657713;-60
2021/03/04 07:49:38;;;;;;;98.43;37.20;;;6.60;99.90;;;;;;4409183;28;659017;-60
2021/03/04 07:52:26;;;;;;;55.07;20.53;;;6.60;99.90;;;;;;4455610;28;658966;-65
2021/03/04 07:55:14;;;;;;;92.73;38.80;;;6.60;99.90;;;;;;4434230;28;657606;-65
2021/03/04 07:58:01;;;;;;;85.87;30.73;;;6.70;99.90;;;;;;4461145;28;659092;-64
2021/03/04 08:00:48;;;;;;;95.13;37.80;;;6.80;99.90;;;;;;4435047;28;658924;-66
2021/03/04 08:03:47;;;;;;;98.70;38.73;;;6.90;99.90;;;;;;4459919;28;658314;-65
2021/03/04 08:06:43;;;;;;;69.00;26.90;;;7.20;99.90;;;;;;4436263;28;657696;-64
2021/03/04 08:09:31;;;;;;;88.27;35.80;;;7.30;99.90;;;;;;4444278;28;658386;-64
2021/03/04 08:12:18;;;;;;;67.37;24.80;;;7.50;99.90;;;;;;4446873;28;658312;-65
2021/03/04 08:15:07;;;;;;;95.67;37.27;;;7.60;99.90;;;;;;4468463;28;657625;-63
2021/03/04 08:17:54;;;;;;;85.83;35.57;;;7.50;99.90;;;;;;4444351;28;657684;-64
2021/03/04 08:20:42;;;;;;;90.90;38.13;;;7.40;99.90;;;;;;4449511;28;659124;-65
2021/03/04 08:23:29;;;;;;;60.13;18.53;;;7.40;99.90;;;;;;4430191;28;658608;-65
2021/03/04 08:26:23;;;;;;;80.47;33.30;;;7.70;99.90;;;;;;4449741;28;657273;-66
2021/03/04 08:29:11;;;;;;;76.33;30.03;;;7.90;99.90;;;;;;4427747;28;657650;-65
2021/03/04 08:31:59;;;;;;;88.80;35.30;;;8.00;99.90;;;;;;4448427;28;658438;-65
2021/03/04 08:34:46;;;;;;;91.60;37.03;;;7.90;99.90;;;;;;4456487;28;657801;-66
2021/03/04 08:37:34;;;;;;;94.80;39.30;;;7.90;99.90;;;;;;4430210;28;658318;-64
2021/03/04 08:40:21;;;;;;;96.33;35.63;;;8.00;99.90;;;;;;4467586;28;657905;-65
2021/03/04 08:43:11;;;;;;;98.10;39.13;;;8.00;99.90;;;;;;4442450;28;658531;-64
2021/03/04 08:45:59;;;;;;;99.73;38.90;;;8.00;99.90;;;;;;4432716;28;658135;-65
2021/03/04 08:48:47;;;;;;;92.50;37.83;;;8.30;99.90;;;;;;4455577;28;658053;-66
2021/03/04 08:51:42;;;;;;;101.27;41.20;;;8.60;99.90;;;;;;4433871;28;658682;-65
2021/03/04 08:54:30;;;;;;;100.55;40.03;;;8.80;99.90;;;;;;4443979;28;659307;-65
2021/03/04 08:57:24;;;;;;;95.73;40.30;;;9.00;99.90;;;;;;4445749;28;659860;-59
2021/03/04 09:00:12;;;;;;;70.93;28.33;;;9.00;99.90;;;;;;4425695;28;657787;-65
2021/03/04 09:03:10;;;;;;;98.55;39.03;;;9.20;99.90;;;;;;4429594;28;658835;-63
2021/03/04 09:06:04;;;;;;;92.67;39.50;;;9.20;99.90;;;;;;4428930;28;657753;-64
2021/03/04 09:08:51;;;;;;;93.27;37.23;;;9.00;99.90;;;;;;4426123;28;659121;-66
2021/03/04 09:11:39;;;;;;;85.77;33.60;;;8.90;99.90;;;;;;4429410;28;658694;-61
2021/03/04 09:14:26;;;;;;;95.53;41.10;;;8.80;99.90;;;;;;4453712;28;658743;-65
2021/03/04 09:17:13;;;;;;;96.03;37.27;;;8.80;99.90;;;;;;4439560;28;658233;-65
2021/03/04 09:20:00;;;;;;;84.40;35.50;;;8.80;99.90;;;;;;4456752;28;657788;-65
2021/03/04 09:22:48;;;;;;;89.93;33.20;;;8.80;99.90;;;;;;4445832;28;659051;-64
2021/03/04 09:25:35;;;;;;;89.37;36.87;;;8.70;99.90;;;;;;4446003;28;659423;-65
2021/03/04 09:28:24;;;;;;;93.40;40.83;;;9.10;99.90;;;;;;4452599;28;657349;-61
2021/03/04 09:31:11;;;;;;;93.07;39.77;;;9.10;99.90;;;;;;4446097;28;658402;-64
2021/03/04 09:33:59;;;;;;;75.32;29.42;;;9.00;99.90;;;;;;4429616;28;658467;-65
2021/03/04 09:36:46;;;;;;;86.43;35.37;;;9.10;99.90;;;;;;4446021;28;657547;-65
2021/03/04 09:39:43;;;;;;;88.07;35.38;;;9.20;99.90;;;;;;4438249;28;658333;-64
2021/03/04 09:42:34;;;;;;;60.37;25.20;;;9.20;99.90;;;;;;4436025;28;658125;-65
2021/03/04 09:45:22;;;;;;;90.80;40.90;;;9.40;99.90;;;;;;4432021;28;657630;-65
2021/03/04 09:48:09;;;;;;;97.60;40.23;;;9.50;99.90;;;;;;4441733;28;658414;-65
2021/03/04 09:50:56;;;;;;;65.17;21.67;;;9.60;99.90;;;;;;4463604;28;658498;-64
2021/03/04 09:53:44;;;;;;;92.47;38.17;;;9.80;99.90;;;;;;4436185;28;657943;-64
2021/03/04 09:56:31;;;;;;;99.80;40.90;;;9.90;99.90;;;;;;4457737;28;658540;-66
2021/03/04 09:59:18;;;;;;;87.80;35.07;;;10.60;99.90;;;;;;4445770;28;657533;-65
2021/03/04 10:02:06;;;;;;;89.23;38.60;;;11.10;99.90;;;;;;4463650;28;659943;-66
2021/03/04 10:04:54;;;;;;;93.07;40.67;;;11.40;99.90;;;;;;4441000;28;658841;-64
2021/03/04 10:07:41;;;;;;;65.60;24.93;;;11.40;99.90;;;;;;4453436;28;658814;-66
2021/03/04 10:10:30;;;;;;;67.83;29.63;;;11.50;99.90;;;;;;4442116;28;659743;-65
2021/03/04 10:13:26;;;;;;;72.87;31.27;;;11.10;99.90;;;;;;4443062;28;658328;-62
2021/03/04 10:16:13;;;;;;;77.75;34.83;;;11.00;99.90;;;;;;4420666;28;659742;-65
2021/03/04 10:19:01;;;;;;;78.67;33.97;;;10.80;99.50;;;;;;4467142;28;659627;-65
2021/03/04 10:21:48;;;;;;;87.30;37.10;;;10.50;99.80;;;;;;4440480;28;659751;-65
2021/03/04 10:24:35;;;;;;;90.15;34.33;;;10.60;99.50;;;;;;4467299;28;659346;-65
2021/03/04 10:27:23;;;;;;;64.43;24.60;;;10.80;99.80;;;;;;4447790;28;659049;-63
2021/03/04 10:30:11;;;;;;;89.50;36.30;;;10.90;99.10;;;;;;4460497;28;659972;-66
2021/03/04 10:32:59;;;;;;;75.30;33.53;;;11.10;98.90;;;;;;4437511;28;659658;-65
2021/03/04 10:35:47;;;;;;;87.00;37.30;;;11.10;98.10;;;;;;4459199;28;658238;-65
2021/03/04 10:38:34;;;;;;;94.77;38.07;;;11.30;98.40;;;;;;4439098;28;658736;-65
2021/03/04 10:41:21;;;;;;;80.83;37.70;;;11.40;97.70;;;;;;4467207;28;660344;-65
2021/03/04 10:44:09;;;;;;;68.13;30.23;;;11.40;97.50;;;;;;4432150;28;659570;-65
2021/03/04 10:46:56;;;;;;;75.60;34.27;;;11.20;96.60;;;;;;4462615;28;659005;-65
2021/03/04 10:49:42;;;;;;;80.87;33.73;;;11.20;96.10;;;;;;4436150;28;658696;-64
2021/03/04 10:52:30;;;;;;;64.50;25.53;;;11.20;95.70;;;;;;4452197;28;659525;-65
2021/03/04 10:55:17;;;;;;;74.13;32.70;;;11.00;95.20;;;;;;4445001;28;660141;-63
2021/03/04 10:58:05;;;;;;;74.80;32.03;;;10.50;95.50;;;;;;4470915;28;659997;-64
2021/03/04 11:00:52;;;;;;;59.07;24.70;;;10.50;96.20;;;;;;4448901;28;658833;-65
2021/03/04 11:03:39;;;;;;;70.27;30.57;;;10.40;96.50;;;;;;4444932;28;659155;-64
2021/03/04 11:06:26;;;;;;;76.10;33.20;;;10.30;96.10;;;;;;4460953;28;658755;-65
2021/03/04 11:09:14;;;;;;;66.47;27.53;;;10.30;96.20;;;;;;4446157;28;658692;-65
2021/03/04 11:12:01;;;;;;;58.83;23.03;;;10.50;95.40;;;;;;4439059;28;658888;-66
2021/03/04 11:14:48;;;;;;;65.60;28.53;;;10.60;95.20;;;;;;4434628;28;659556;-64
2021/03/04 11:17:35;;;;;;;74.83;33.20;;;10.60;94.70;;;;;;4442259;28;658489;-65
2021/03/04 11:20:24;;;;;;;51.97;21.83;;;10.60;94.80;;;;;;4432793;28;658526;-62
2021/03/04 11:23:11;;;;;;;69.83;28.00;;;10.70;95.40;;;;;;4457722;28;659951;-64
2021/03/04 11:25:59;;;;;;;55.73;21.20;;;10.80;95.10;;;;;;4439523;28;659141;-64
2021/03/04 11:28:46;;;;;;;81.07;34.27;;;10.90;95.60;;;;;;4463282;28;658864;-66
2021/03/04 11:31:33;;;;;;;73.03;32.13;;;11.00;94.60;;;;;;4435715;28;658651;-66
2021/03/04 11:34:20;;;;;;;60.73;21.37;;;11.10;94.80;;;;;;4457883;28;659316;-65
2021/03/04 11:37:08;;;;;;;53.57;22.47;;;11.20;94.10;;;;;;4434336;28;659874;-64
2021/03/04 11:39:55;;;;;;;78.87;30.17;;;10.70;94.20;;;;;;4453914;28;659116;-65
2021/03/04 11:42:43;;;;;;;83.97;35.37;;;10.90;94.70;;;;;;4442367;28;658837;-64
2021/03/04 11:45:31;;;;;;;78.30;30.17;;;10.80;94.30;;;;;;4458349;28;660890;-65
2021/03/04 11:48:18;;;;;;;56.57;24.07;;;10.70;95.30;;;;;;4442685;28;658613;-63
2021/03/04 11:51:05;;;;;;;82.17;36.03;;;10.80;94.90;;;;;;4454338;28;659997;-66
2021/03/04 11:53:52;;;;;;;82.40;34.03;;;10.70;95.30;;;;;;4457686;28;659975;-61
2021/03/04 11:56:39;;;;;;;79.43;31.50;;;10.70;95.30;;;;;;4459989;28;658279;-65
2021/03/04 11:59:27;;;;;;;79.73;36.43;;;10.70;95.50;;;;;;4448052;28;659689;-65
2021/03/04 12:02:14;;;;;;;87.03;38.60;;;10.60;95.90;;;;;;4431243;28;659171;-65
2021/03/04 12:05:01;;;;;;;88.20;36.97;;;10.50;95.90;;;;;;4457480;28;658923;-66
2021/03/04 12:07:48;;;;;;;82.63;38.97;;;10.50;96.20;;;;;;4432190;28;661110;-65
2021/03/04 12:10:35;;;;;;;95.27;39.87;;;10.40;96.50;;;;;;4457590;28;659504;-64
2021/03/04 12:13:23;;;;;;;92.83;37.40;;;10.30;96.80;;;;;;4420482;28;659344;-64
2021/03/04 12:16:11;;;;;;;93.70;39.63;;;10.30;97.10;;;;;;4458938;28;659379;-65
2021/03/04 12:18:58;;;;;;;91.10;40.20;;;10.40;97.00;;;;;;4428342;28;659388;-65
2021/03/04 12:21:45;;;;;;;85.00;29.27;;;10.40;96.70;;;;;;4439965;28;659644;-63
2021/03/04 12:24:32;;;;;;;77.07;31.97;;;10.40;96.90;;;;;;4430549;28;658635;-62
2021/03/04 12:27:19;;;;;;;83.73;37.80;;;10.20;97.40;;;;;;4450663;28;658943;-65
2021/03/04 12:30:07;;;;;;;83.83;37.60;;;10.30;97.60;;;;;;4456219;28;658499;-65
2021/03/04 12:32:55;;;;;;;101.20;41.63;;;10.20;97.90;;;;;;4429819;28;659264;-64
2021/03/04 12:35:42;;;;;;;74.17;28.77;;;10.40;97.70;;;;;;4435623;28;660629;-60
2021/03/04 12:38:33;;;;;;;76.25;33.08;;;10.30;98.20;;;;;;4439008;28;658696;-66
2021/03/04 12:41:20;;;;;;;103.33;43.10;;;10.20;98.40;;;;;;4408092;28;659880;-64
2021/03/04 12:44:08;;;;;;;85.60;37.60;;;10.20;98.70;;;;;;4434763;28;659832;-64
2021/03/04 12:46:55;;;;;;;82.00;36.07;;;10.20;98.80;;;;;;4460148;28;660137;-65
2021/03/04 12:49:43;;;;;;;72.03;30.20;;;10.10;99.00;;;;;;4451553;28;659150;-62
2021/03/04 12:52:31;;;;;;;90.50;38.77;;;10.20;98.90;;;;;;4447501;28;659819;-66
2021/03/04 12:55:20;;;;;;;99.88;38.80;;;10.10;99.10;;;;;;4441096;28;659408;-64
2021/03/04 12:58:13;;;;;;;83.47;37.10;;;10.20;99.00;;;;;;4428126;28;659188;-63
2021/03/04 13:01:01;;;;;;;85.77;37.97;;;10.20;98.70;;;;;;4437633;28;658173;-66
2021/03/04 13:03:48;;;;;;;89.40;37.53;;;10.20;98.80;;;;;;4437616;28;658750;-61
2021/03/04 13:06:36;;;;;;;88.53;37.87;;;10.20;99.00;;;;;;4451943;28;660168;-65
2021/03/04 13:09:23;;;;;;;93.83;36.53;;;10.20;98.80;;;;;;4429852;28;658586;-65
2021/03/04 13:12:11;;;;;;;91.57;37.90;;;10.20;98.80;;;;;;4455295;28;659406;-65
2021/03/04 13:14:59;;;;;;;77.77;32.83;;;10.30;98.50;;;;;;4429121;28;659969;-64
2021/03/04 13:17:46;;;;;;;79.63;35.50;;;10.30;98.90;;;;;;4439303;28;659070;-64
2021/03/04 13:20:33;;;;;;;92.10;38.93;;;10.30;98.70;;;;;;4433582;28;659874;-66
2021/03/04 13:23:21;;;;;;;84.00;37.47;;;10.30;99.10;;;;;;4447340;28;659617;-65
2021/03/04 13:26:08;;;;;;;91.20;38.50;;;10.30;98.50;;;;;;4427826;28;659184;-65
2021/03/04 13:28:55;;;;;;;90.10;39.17;;;10.20;99.00;;;;;;4454880;28;659480;-64
2021/03/04 13:31:42;;;;;;;85.53;36.23;;;10.20;99.00;;;;;;4434349;28;658471;-63
2021/03/04 13:34:30;;;;;;;90.53;40.57;;;10.20;98.70;;;;;;4451114;28;660230;-63
2021/03/04 13:37:18;;;;;;;88.33;39.40;;;10.20;99.00;;;;;;4446772;28;658724;-65
2021/03/04 13:40:07;;;;;;;85.97;38.97;;;10.30;98.50;;;;;;4426102;28;659314;-66
2021/03/04 13:42:55;;;;;;;77.37;35.17;;;10.20;98.30;;;;;;4424211;28;660695;-65
2021/03/04 13:45:42;;;;;;;71.97;23.53;;;10.20;98.20;;;;;;4450172;28;659323;-61
2021/03/04 13:48:29;;;;;;;70.97;29.27;;;10.30;98.50;;;;;;4456677;28;658802;-65
2021/03/04 13:51:16;;;;;;;80.23;35.43;;;10.30;98.30;;;;;;4454106;28;658342;-65
2021/03/04 13:54:03;;;;;;;86.97;35.70;;;10.10;98.40;;;;;;4429385;28;658533;-65
2021/03/04 13:56:51;;;;;;;78.28;31.10;;;10.00;98.30;;;;;;4458099;28;659912;-66
2021/03/04 13:59:38;;;;;;;95.75;38.80;;;9.90;98.80;;;;;;4437239;28;658882;-66
2021/03/04 14:02:25;;;;;;;84.20;34.77;;;10.00;98.60;;;;;;4452708;28;659123;-65
2021/03/04 14:05:13;;;;;;;88.28;35.38;;;10.00;98.40;;;;;;4436712;28;658985;-61
2021/03/04 14:08:00;;;;;;;79.20;34.23;;;9.90;98.80;;;;;;4455171;28;659882;-66